createdAt,value
2022-09-25T00:00:59.968Z,3.37
2022-09-25T00:03:29.226Z,4.70
2022-09-25T00:06:03.065Z,4.43
2022-09-25T00:08:31.041Z,3.93
2022-09-25T00:11:00.169Z,3.80
2022-09-25T00:13:27.933Z,4.03
2022-09-25T00:15:57.938Z,4.33
2022-09-25T00:18:44.734Z,4.17
2022-09-25T00:21:14.505Z,4.20
2022-09-25T00:23:43.538Z,4.03
2022-09-25T00:26:14.942Z,4.07
2022-09-25T00:28:43.628Z,3.80
2022-09-25T00:31:12.590Z,3.87
2022-09-25T00:33:40.348Z,3.63
2022-09-25T00:36:10.507Z,3.70
2022-09-25T00:38:39.428Z,3.93
2022-09-25T00:41:08.463Z,4.30
2022-09-25T00:43:40.517Z,4.30
2022-09-25T00:46:12.010Z,4.53
2022-09-25T00:48:48.193Z,3.83
2022-09-25T00:51:17.186Z,4.10
2022-09-25T00:53:45.325Z,4.33
2022-09-25T00:56:14.349Z,3.67
2022-09-25T00:58:43.838Z,3.50
2022-09-25T01:01:12.203Z,3.77
2022-09-25T01:03:41.888Z,3.50
2022-09-25T01:06:10.424Z,4.17
2022-09-25T01:08:40.180Z,3.30
2022-09-25T01:11:08.017Z,4.13
2022-09-25T01:13:36.046Z,4.00
2022-09-25T01:16:12.759Z,3.80
2022-09-25T01:18:59.052Z,4.00
2022-09-25T01:21:38.791Z,3.50
2022-09-25T01:24:33.278Z,3.50
2022-09-25T01:27:20.801Z,3.50
2022-09-25T01:29:54.711Z,3.30
2022-09-25T01:32:29.614Z,3.60
2022-09-25T01:35:03.131Z,3.57
2022-09-25T01:37:37.432Z,4.03
2022-09-25T01:40:11.384Z,4.33
2022-09-25T01:42:43.956Z,4.23
2022-09-25T01:45:20.080Z,4.37
2022-09-25T01:47:51.555Z,3.70
2022-09-25T01:50:26.118Z,3.90
2022-09-25T01:53:00.339Z,3.97
2022-09-25T01:55:31.039Z,3.60
2022-09-25T01:58:05.283Z,3.50
2022-09-25T02:00:38.247Z,3.43
2022-09-25T02:03:12.436Z,3.40
2022-09-25T02:05:46.319Z,3.87
2022-09-25T02:08:18.130Z,4.47
2022-09-25T02:10:51.210Z,3.93
2022-09-25T02:13:20.941Z,4.00
2022-09-25T02:15:53.124Z,3.90
2022-09-25T02:18:40.144Z,3.70
2022-09-25T02:21:15.254Z,3.93
2022-09-25T02:23:51.945Z,4.13
2022-09-25T02:26:26.770Z,4.10
2022-09-25T02:28:54.879Z,4.53
2022-09-25T02:31:30.982Z,4.97
2022-09-25T02:33:59.226Z,3.43
2022-09-25T02:36:26.973Z,4.10
2022-09-25T02:38:57.136Z,4.20
2022-09-25T02:41:39.498Z,4.23
2022-09-25T02:44:17.218Z,4.50
2022-09-25T02:46:56.192Z,4.07
2022-09-25T02:49:33.617Z,4.20
2022-09-25T02:52:07.085Z,4.40
2022-09-25T02:54:44.234Z,3.97
2022-09-25T02:57:17.249Z,4.33
2022-09-25T02:59:52.717Z,4.17
2022-09-25T03:02:23.431Z,4.37
2022-09-25T03:04:52.375Z,4.07
2022-09-25T03:07:21.269Z,4.20
2022-09-25T03:09:50.020Z,3.80
2022-09-25T03:12:18.124Z,3.80
2022-09-25T03:14:45.917Z,4.03
2022-09-25T03:17:16.009Z,3.80
2022-09-25T03:19:45.123Z,3.53
2022-09-25T03:22:13.016Z,4.20
2022-09-25T03:24:40.788Z,4.10
2022-09-25T03:27:09.087Z,4.03
2022-09-25T03:29:36.864Z,3.87
2022-09-25T03:32:04.852Z,4.07
2022-09-25T03:34:32.752Z,4.23
2022-09-25T03:37:01.870Z,3.90
2022-09-25T03:39:29.658Z,3.83
2022-09-25T03:41:57.444Z,3.87
2022-09-25T03:44:25.253Z,3.87
2022-09-25T03:46:53.063Z,3.90
2022-09-25T03:49:20.868Z,4.27
2022-09-25T03:51:48.655Z,3.63
2022-09-25T03:54:17.952Z,4.30
2022-09-25T03:56:45.723Z,4.30
2022-09-25T03:59:13.505Z,4.40
2022-09-25T04:01:42.475Z,5.20
2022-09-25T04:04:10.365Z,4.30
2022-09-25T04:06:38.214Z,4.77
2022-09-25T04:09:05.981Z,4.70
2022-09-25T04:11:35.697Z,4.90
2022-09-25T04:14:03.498Z,4.90
2022-09-25T04:16:31.589Z,5.40
2022-09-25T04:18:59.561Z,4.90
2022-09-25T04:21:27.431Z,4.60
2022-09-25T04:24:12.587Z,4.67
2022-09-25T04:26:41.796Z,4.97
2022-09-25T04:29:09.606Z,5.27
2022-09-25T04:31:37.464Z,5.00
2022-09-25T04:34:04.426Z,5.10
2022-09-25T04:36:32.297Z,5.40
2022-09-25T04:39:00.102Z,4.70
2022-09-25T04:41:27.900Z,4.97
2022-09-25T04:43:56.992Z,4.60
2022-09-25T04:46:24.785Z,4.90
2022-09-25T04:48:52.602Z,3.70
2022-09-25T04:51:20.463Z,5.10
2022-09-25T04:53:48.229Z,5.00
2022-09-25T04:56:16.973Z,4.87
2022-09-25T04:58:46.554Z,4.30
2022-09-25T05:01:16.228Z,4.67
2022-09-25T05:03:44.145Z,4.10
2022-09-25T05:06:11.996Z,4.70
2022-09-25T05:08:39.767Z,4.93
2022-09-25T05:11:07.882Z,4.73
2022-09-25T05:13:35.672Z,4.37
2022-09-25T05:16:03.634Z,4.90
2022-09-25T05:18:32.804Z,4.80
2022-09-25T05:21:04.969Z,6.20
2022-09-25T05:23:32.762Z,8.40
2022-09-25T05:26:02.032Z,10.20
2022-09-25T05:28:29.915Z,11.67
2022-09-25T05:31:02.685Z,12.00
2022-09-25T05:33:32.132Z,13.43
2022-09-25T05:36:02.571Z,15.20
2022-09-25T05:38:30.339Z,17.27
2022-09-25T05:41:04.343Z,16.87
2022-09-25T05:43:32.355Z,17.10
2022-09-25T05:46:00.728Z,17.13
2022-09-25T05:48:28.551Z,17.90
2022-09-25T05:50:58.971Z,16.17
2022-09-25T05:53:27.849Z,17.33
2022-09-25T05:55:58.095Z,17.03
2022-09-25T05:58:26.516Z,18.40
2022-09-25T06:00:54.931Z,16.67
2022-09-25T06:03:23.255Z,16.30
2022-09-25T06:05:51.057Z,14.83
2022-09-25T06:08:20.231Z,16.30
2022-09-25T06:10:54.520Z,15.97
2022-09-25T06:13:24.378Z,16.10
2022-09-25T06:15:53.005Z,17.07
2022-09-25T06:18:22.819Z,17.10
2022-09-25T06:20:51.169Z,16.43
2022-09-25T06:23:20.298Z,16.50
2022-09-25T06:25:48.080Z,14.73
2022-09-25T06:28:15.877Z,15.27
2022-09-25T06:30:45.345Z,14.70
2022-09-25T06:33:14.950Z,14.03
2022-09-25T06:35:43.406Z,13.47
2022-09-25T06:38:11.871Z,13.47
2022-09-25T06:40:42.027Z,14.10
2022-09-25T06:43:12.448Z,15.30
2022-09-25T06:45:40.517Z,15.07
2022-09-25T06:48:10.066Z,15.47
2022-09-25T06:50:41.066Z,15.20
2022-09-25T06:53:09.230Z,14.70
2022-09-25T06:55:37.464Z,16.57
2022-09-25T06:58:09.321Z,15.47
2022-09-25T07:00:37.337Z,13.83
2022-09-25T07:03:22.615Z,17.10
2022-09-25T07:05:50.434Z,15.47
2022-09-25T07:08:21.038Z,16.20
2022-09-25T07:10:50.180Z,16.07
2022-09-25T07:13:24.297Z,16.60
2022-09-25T07:15:53.063Z,16.23
2022-09-25T07:18:20.970Z,15.37
2022-09-25T07:20:48.807Z,16.10
2022-09-25T07:23:17.353Z,17.67
2022-09-25T07:25:45.554Z,15.00
2022-09-25T07:28:14.989Z,16.87
2022-09-25T07:30:44.588Z,15.57
2022-09-25T07:33:12.977Z,17.00
2022-09-25T07:35:41.039Z,14.47
2022-09-25T07:38:09.236Z,15.90
2022-09-25T07:40:37.081Z,17.73
2022-09-25T07:43:05.548Z,17.83
2022-09-25T07:45:33.729Z,15.80
2022-09-25T07:48:04.467Z,13.93
2022-09-25T07:50:33.326Z,12.07
2022-09-25T07:53:01.631Z,11.43
2022-09-25T07:55:30.032Z,12.20
2022-09-25T07:57:58.914Z,11.37
2022-09-25T08:00:26.829Z,11.77
2022-09-25T08:02:57.878Z,11.30
2022-09-25T08:05:28.123Z,10.60
2022-09-25T08:07:55.974Z,10.83
2022-09-25T08:10:24.160Z,10.87
2022-09-25T08:12:51.995Z,11.83
2022-09-25T08:15:19.787Z,11.53
2022-09-25T08:17:47.568Z,11.20
2022-09-25T08:20:15.610Z,10.83
2022-09-25T08:22:44.800Z,10.53
2022-09-25T08:25:12.967Z,10.47
2022-09-25T08:27:41.495Z,10.90
2022-09-25T08:30:10.957Z,10.80
2022-09-25T08:32:39.257Z,11.03
2022-09-25T08:35:08.138Z,10.20
2022-09-25T08:37:36.097Z,9.90
2022-09-25T08:40:05.697Z,12.00
2022-09-25T08:42:37.812Z,12.63
2022-09-25T08:45:30.496Z,13.13
2022-09-25T08:48:17.089Z,12.50
2022-09-25T08:50:44.954Z,13.73
2022-09-25T08:53:24.488Z,12.80
2022-09-25T08:56:20.604Z,12.90
2022-09-25T08:58:54.575Z,12.77
2022-09-25T09:01:26.041Z,12.43
2022-09-25T09:03:58.661Z,12.97
2022-09-25T09:06:28.954Z,13.70
2022-09-25T09:09:01.120Z,13.10
2022-09-25T09:11:34.769Z,13.93
2022-09-25T09:14:05.695Z,13.90
2022-09-25T09:16:40.147Z,13.20
2022-09-25T09:19:10.756Z,11.83
2022-09-25T09:21:40.193Z,12.47
2022-09-25T09:24:15.679Z,10.93
2022-09-25T09:27:08.823Z,9.23
2022-09-25T09:29:49.618Z,10.27
2022-09-25T09:32:28.549Z,10.27
2022-09-25T09:35:07.544Z,9.23
2022-09-25T09:37:49.918Z,11.97
2022-09-25T09:40:30.406Z,9.77
2022-09-25T09:43:06.867Z,9.30
2022-09-25T09:45:42.083Z,10.70
2022-09-25T09:48:17.883Z,9.57
2022-09-25T09:50:52.949Z,8.90
2022-09-25T09:53:29.716Z,10.63
2022-09-25T09:56:01.673Z,11.10
2022-09-25T09:58:36.768Z,9.87
2022-09-25T10:01:22.072Z,8.70
2022-09-25T10:04:08.814Z,9.23
2022-09-25T10:06:39.767Z,9.10
2022-09-25T10:09:08.731Z,9.80
2022-09-25T10:11:37.461Z,10.57
2022-09-25T10:14:06.649Z,9.07
2022-09-25T10:16:34.990Z,8.30
2022-09-25T10:19:08.075Z,8.40
2022-09-25T10:21:41.983Z,8.20
2022-09-25T10:24:09.897Z,7.87
2022-09-25T10:26:39.246Z,8.40
2022-09-25T10:29:29.465Z,7.97
2022-09-25T10:32:00.030Z,7.30
2022-09-25T10:34:29.638Z,7.93
2022-09-25T10:36:57.991Z,6.07
2022-09-25T10:39:43.991Z,5.47
2022-09-25T10:42:38.590Z,5.70
2022-09-25T10:45:32.087Z,5.37
2022-09-25T10:48:17.553Z,5.70
2022-09-25T10:50:46.307Z,6.17
2022-09-25T10:53:30.601Z,5.37
2022-09-25T10:56:04.990Z,4.50
2022-09-25T10:58:38.953Z,3.90
2022-09-25T11:01:13.357Z,5.20
2022-09-25T11:03:52.294Z,4.70
2022-09-25T11:06:23.925Z,4.67
2022-09-25T11:09:00.088Z,4.30
2022-09-25T11:11:28.266Z,6.73
2022-09-25T11:13:58.262Z,6.30
2022-09-25T11:16:52.647Z,6.40
2022-09-25T11:19:25.927Z,6.63
2022-09-25T11:22:12.585Z,6.70
2022-09-25T11:24:58.688Z,6.37
2022-09-25T11:27:35.420Z,6.60
2022-09-25T11:30:07.058Z,5.70
2022-09-25T11:32:51.710Z,5.33
2022-09-25T11:35:33.566Z,6.10
2022-09-25T11:38:14.229Z,5.60
2022-09-25T11:41:10.744Z,5.50
2022-09-25T11:43:50.508Z,5.50
2022-09-25T11:46:28.816Z,5.80
2022-09-25T11:49:12.226Z,6.40
2022-09-25T11:52:03.540Z,6.30
2022-09-25T11:54:41.201Z,6.10
2022-09-25T11:57:14.813Z,6.07
2022-09-25T12:00:03.721Z,5.80
2022-09-25T12:02:41.782Z,5.77
2022-09-25T12:05:25.087Z,6.13
2022-09-25T12:08:10.439Z,6.27
2022-09-25T12:10:50.341Z,7.47
2022-09-25T12:13:27.914Z,6.07
2022-09-25T12:16:07.191Z,6.57
2022-09-25T12:18:50.155Z,6.10
2022-09-25T12:21:29.141Z,5.87
2022-09-25T12:24:01.872Z,6.00
2022-09-25T12:26:40.303Z,6.37
2022-09-25T12:29:20.994Z,5.33
2022-09-25T12:31:58.577Z,5.60
2022-09-25T12:34:40.987Z,4.97
2022-09-25T12:37:23.056Z,5.50
2022-09-25T12:39:58.020Z,5.97
2022-09-25T12:42:40.855Z,5.60
2022-09-25T12:45:16.871Z,5.90
2022-09-25T12:47:52.910Z,5.80
2022-09-25T12:50:29.288Z,6.30
2022-09-25T12:53:04.147Z,5.47
2022-09-25T12:55:39.721Z,5.57
2022-09-25T12:58:20.189Z,5.47
2022-09-25T13:00:52.463Z,12.00
2022-09-25T13:03:39.914Z,6.67
2022-09-25T13:06:11.424Z,5.93
2022-09-25T13:08:45.936Z,6.13
2022-09-25T13:11:17.462Z,5.40
2022-09-25T13:13:49.288Z,6.00
2022-09-25T13:16:17.780Z,6.10
2022-09-25T13:18:49.400Z,5.87
2022-09-25T13:21:26.236Z,6.00
2022-09-25T13:23:57.726Z,5.60
2022-09-25T13:26:28.245Z,5.30
2022-09-25T13:28:58.666Z,4.57
2022-09-25T13:31:28.665Z,5.40
2022-09-25T13:34:04.605Z,6.40
2022-09-25T13:36:37.822Z,5.90
2022-09-25T13:39:33.726Z,6.30
2022-09-25T13:42:06.525Z,6.40
2022-09-25T13:45:07.744Z,7.00
2022-09-25T13:48:00.614Z,6.80
2022-09-25T13:50:39.953Z,6.07
2022-09-25T13:53:26.377Z,6.60
2022-09-25T13:56:29.675Z,6.63
2022-09-25T13:59:24.320Z,7.37
2022-09-25T14:01:58.116Z,7.10
2022-09-25T14:04:32.762Z,6.77
2022-09-25T14:07:14.241Z,6.83
2022-09-25T14:09:46.974Z,7.67
2022-09-25T14:12:43.271Z,7.30
2022-09-25T14:15:26.654Z,7.07
2022-09-25T14:17:57.011Z,6.53
2022-09-25T14:20:43.537Z,5.23
2022-09-25T14:23:16.751Z,4.97
2022-09-25T14:25:46.909Z,4.90
2022-09-25T14:28:23.051Z,4.80
2022-09-25T14:31:08.021Z,4.47
2022-09-25T14:34:05.111Z,4.37
2022-09-25T14:36:42.398Z,4.03
2022-09-25T14:39:27.762Z,3.50
2022-09-25T14:42:17.151Z,4.00
2022-09-25T14:45:07.195Z,3.83
2022-09-25T14:47:36.790Z,4.30
2022-09-25T14:50:06.561Z,4.30
2022-09-25T14:52:37.416Z,4.20
2022-09-25T14:55:06.550Z,4.27
2022-09-25T14:57:37.142Z,4.20
2022-09-25T15:00:09.231Z,4.37
2022-09-25T15:02:40.728Z,5.50
2022-09-25T15:05:19.491Z,3.17
2022-09-25T15:07:48.297Z,3.63
2022-09-25T15:10:28.612Z,4.20
2022-09-25T15:13:07.209Z,4.03
2022-09-25T15:15:37.532Z,3.90
2022-09-25T15:18:08.148Z,4.00
2022-09-25T15:20:36.850Z,3.60
2022-09-25T15:23:06.675Z,3.27
2022-09-25T15:25:38.046Z,3.50
2022-09-25T15:28:07.472Z,3.67
2022-09-25T15:30:39.890Z,3.90
2022-09-25T15:33:07.771Z,4.10
2022-09-25T15:35:35.701Z,4.97
2022-09-25T15:38:08.452Z,5.40
2022-09-25T15:40:36.361Z,5.07
2022-09-25T15:43:06.969Z,4.77
2022-09-25T15:45:43.594Z,4.67
2022-09-25T15:48:22.057Z,4.50
2022-09-25T15:50:50.929Z,5.20
2022-09-25T15:53:26.032Z,5.23
2022-09-25T15:56:04.720Z,9.00
2022-09-25T15:58:46.144Z,5.97
2022-09-25T16:01:36.970Z,3.90
2022-09-25T16:04:25.544Z,3.90
2022-09-25T16:06:53.638Z,4.07
2022-09-25T16:09:24.764Z,4.20
2022-09-25T16:11:52.679Z,4.47
2022-09-25T16:14:29.114Z,3.43
2022-09-25T16:16:59.924Z,4.27
2022-09-25T16:19:33.330Z,4.03
2022-09-25T16:22:13.945Z,4.30
2022-09-25T16:24:42.981Z,4.60
2022-09-25T16:27:23.783Z,3.77
2022-09-25T16:29:52.625Z,3.93
2022-09-25T16:32:24.294Z,4.10
2022-09-25T16:34:59.034Z,3.93
2022-09-25T16:37:31.996Z,4.20
2022-09-25T16:40:24.729Z,3.50
2022-09-25T16:42:55.987Z,3.90
2022-09-25T16:45:27.836Z,3.80
2022-09-25T16:47:58.760Z,4.10
2022-09-25T16:50:29.025Z,4.97
2022-09-25T16:52:56.981Z,4.63
2022-09-25T16:55:27.303Z,3.60
2022-09-25T16:57:56.453Z,3.97
2022-09-25T17:00:26.616Z,3.40
2022-09-25T17:02:56.098Z,4.10
2022-09-25T17:05:26.442Z,3.97
2022-09-25T17:07:56.608Z,4.03
2022-09-25T17:10:26.807Z,5.03
2022-09-25T17:12:56.620Z,5.67
2022-09-25T17:15:29.178Z,6.77
2022-09-25T17:17:59.496Z,7.87
2022-09-25T17:20:30.915Z,8.37
2022-09-25T17:22:59.190Z,7.67
2022-09-25T17:25:39.227Z,7.47
2022-09-25T17:28:08.428Z,7.30
2022-09-25T17:30:36.633Z,7.40
2022-09-25T17:33:06.121Z,6.90
2022-09-25T17:35:39.649Z,7.10
2022-09-25T17:38:07.448Z,8.40
2022-09-25T17:40:35.675Z,7.20
2022-09-25T17:43:03.546Z,7.77
2022-09-25T17:45:36.632Z,7.37
2022-09-25T17:48:05.877Z,7.17
2022-09-25T17:50:35.601Z,7.40
2022-09-25T17:53:05.066Z,5.70
2022-09-25T17:55:34.104Z,6.40
2022-09-25T17:58:01.895Z,6.30
2022-09-25T18:00:29.691Z,6.20
2022-09-25T18:02:57.720Z,5.87
2022-09-25T18:05:29.512Z,5.30
2022-09-25T18:07:57.352Z,5.00
2022-09-25T18:10:28.884Z,5.40
2022-09-25T18:12:56.966Z,5.50
2022-09-25T18:15:24.803Z,5.03
2022-09-25T18:17:52.967Z,6.47
2022-09-25T18:20:39.058Z,6.00
2022-09-25T18:23:08.271Z,5.80
2022-09-25T18:25:39.706Z,6.03
2022-09-25T18:28:07.623Z,6.20
2022-09-25T18:30:38.058Z,5.33
2022-09-25T18:33:05.989Z,4.87
2022-09-25T18:35:33.824Z,5.20
2022-09-25T18:38:01.650Z,5.00
2022-09-25T18:40:30.825Z,5.50
2022-09-25T18:43:01.342Z,5.33
2022-09-25T18:45:29.553Z,5.53
2022-09-25T18:47:57.940Z,5.10
2022-09-25T18:50:26.665Z,5.30
2022-09-25T18:52:54.487Z,4.90
2022-09-25T18:55:22.328Z,6.07
2022-09-25T18:57:52.635Z,5.90
2022-09-25T19:00:20.612Z,4.33
2022-09-25T19:02:48.553Z,4.73
2022-09-25T19:05:17.382Z,4.40
2022-09-25T19:07:45.335Z,5.20
2022-09-25T19:10:13.570Z,5.27
2022-09-25T19:12:41.432Z,4.50
2022-09-25T19:15:11.497Z,5.70
2022-09-25T19:17:39.579Z,5.87
2022-09-25T19:20:08.179Z,5.10
2022-09-25T19:22:37.187Z,4.77
2022-09-25T19:25:05.822Z,5.23
2022-09-25T19:27:33.653Z,5.03
2022-09-25T19:30:01.565Z,4.77
2022-09-25T19:32:30.707Z,5.87
2022-09-25T19:34:59.658Z,5.00
2022-09-25T19:37:29.919Z,6.53
2022-09-25T19:40:15.315Z,5.50
2022-09-25T19:42:43.276Z,5.13
2022-09-25T19:45:12.149Z,4.97
2022-09-25T19:47:41.311Z,5.37
2022-09-25T19:50:10.608Z,4.73
2022-09-25T19:52:38.428Z,4.73
2022-09-25T19:55:06.991Z,5.03
2022-09-25T19:57:34.930Z,5.20
2022-09-25T20:00:03.025Z,4.80
2022-09-25T20:02:30.899Z,4.37
2022-09-25T20:05:00.201Z,5.00
2022-09-25T20:07:28.010Z,5.63
2022-09-25T20:09:55.794Z,5.40
2022-09-25T20:12:23.571Z,5.77
2022-09-25T20:14:51.417Z,5.53
2022-09-25T20:17:19.201Z,5.20
2022-09-25T20:19:47.065Z,5.37
2022-09-25T20:22:16.291Z,5.40
2022-09-25T20:24:44.074Z,4.63
2022-09-25T20:27:11.878Z,5.27
2022-09-25T20:29:39.640Z,4.90
2022-09-25T20:32:07.439Z,4.53
2022-09-25T20:34:35.224Z,4.53
2022-09-25T20:37:03.619Z,4.60
2022-09-25T20:39:32.808Z,3.37
2022-09-25T20:42:00.589Z,3.80
2022-09-25T20:44:28.360Z,3.43
2022-09-25T20:46:56.112Z,3.40
2022-09-25T20:49:23.870Z,3.60
2022-09-25T20:51:51.663Z,3.40
2022-09-25T20:54:19.410Z,3.37
2022-09-25T20:56:48.515Z,3.27
2022-09-25T20:59:17.750Z,3.10
2022-09-25T21:01:46.005Z,3.27
2022-09-25T21:04:17.961Z,3.30
2022-09-25T21:06:45.781Z,3.23
2022-09-25T21:09:19.996Z,3.80
2022-09-25T21:11:49.540Z,3.73
2022-09-25T21:14:19.742Z,3.20
2022-09-25T21:16:48.818Z,3.17
2022-09-25T21:19:18.203Z,3.77
2022-09-25T21:21:46.857Z,3.53
2022-09-25T21:24:16.066Z,3.27
2022-09-25T21:26:45.146Z,3.83
2022-09-25T21:29:16.641Z,3.00
2022-09-25T21:31:49.796Z,3.07
2022-09-25T21:34:19.191Z,3.40
2022-09-25T21:36:47.798Z,3.23
2022-09-25T21:39:15.933Z,3.67
2022-09-25T21:41:43.884Z,3.93
2022-09-25T21:44:15.527Z,3.37
2022-09-25T21:46:43.821Z,3.53
2022-09-25T21:49:16.576Z,3.67
2022-09-25T21:51:45.950Z,3.67
2022-09-25T21:54:14.512Z,4.07
2022-09-25T21:56:44.317Z,4.33
2022-09-25T21:59:12.699Z,3.70
2022-09-25T22:01:42.547Z,3.73
2022-09-25T22:04:14.248Z,3.10
2022-09-25T22:06:44.380Z,3.47
2022-09-25T22:09:15.951Z,3.90
2022-09-25T22:11:44.953Z,3.70
2022-09-25T22:14:16.010Z,3.73
2022-09-25T22:16:47.298Z,3.40
2022-09-25T22:19:17.300Z,3.67
2022-09-25T22:21:47.111Z,3.60
2022-09-25T22:24:15.947Z,3.60
2022-09-25T22:26:45.429Z,3.60
2022-09-25T22:29:14.175Z,4.33
2022-09-25T22:31:43.226Z,4.00
2022-09-25T22:34:18.625Z,4.97
2022-09-25T22:36:46.598Z,4.73
2022-09-25T22:39:16.238Z,4.60
2022-09-25T22:41:44.275Z,4.53
2022-09-25T22:44:12.098Z,4.63
2022-09-25T22:46:39.907Z,4.60
2022-09-25T22:49:07.954Z,4.70
2022-09-25T22:51:37.106Z,4.93
2022-09-25T22:54:05.467Z,5.00
2022-09-25T22:56:34.723Z,5.10
2022-09-25T22:59:04.501Z,5.00
2022-09-25T23:01:36.606Z,5.03
2022-09-25T23:04:07.017Z,3.97
2022-09-25T23:06:37.472Z,4.43
2022-09-25T23:09:09.276Z,4.27
2022-09-25T23:11:37.201Z,4.40
2022-09-25T23:14:07.836Z,4.47
2022-09-25T23:16:36.254Z,4.00
2022-09-25T23:19:04.504Z,3.10
2022-09-25T23:21:32.956Z,2.80
2022-09-25T23:24:04.470Z,3.40
2022-09-25T23:26:32.617Z,4.20
2022-09-25T23:29:01.967Z,3.30
2022-09-25T23:31:30.974Z,3.30
2022-09-25T23:34:00.286Z,2.83
2022-09-25T23:36:29.751Z,3.40
2022-09-25T23:39:00.155Z,3.83
2022-09-25T23:41:31.442Z,3.50
2022-09-25T23:44:01.126Z,3.63
2022-09-25T23:46:32.328Z,2.50
2022-09-25T23:49:00.887Z,2.43
2022-09-25T23:51:29.038Z,2.50
2022-09-25T23:53:59.255Z,2.40
2022-09-25T23:56:31.461Z,2.20
2022-09-25T23:59:01.057Z,1.60
